Time;durP1;ratioP1;P1;durP2;ratioP2;P2;SDS_P1;SDS_P2;PMS_P1;PMS_P2;Temp;Humidity;BMP_temperature;BMP_pressure;BME280_temperature;BME280_humidity;BME280_pressure;Samples;Min_cycle;Max_cycle;Signal;HPM_P1;HPM_P2
2021/06/05 00:01:51;;;;;;;4.22;1.38;;;19.70;99.90;;;;;;5000580;28;20062;-75
2021/06/05 00:04:18;;;;;;;3.38;1.38;;;19.70;99.90;;;;;;4976040;28;20035;-75
2021/06/05 00:06:44;;;;;;;1.27;1.13;;;19.60;99.90;;;;;;4976157;28;20115;-76
2021/06/05 00:09:12;;;;;;;1.85;1.67;;;19.50;99.90;;;;;;4975869;28;20174;-74
2021/06/05 00:11:38;;;;;;;2.08;1.30;;;19.40;99.90;;;;;;5001953;28;20010;-76
2021/06/05 00:14:06;;;;;;;3.92;1.00;;;19.40;99.90;;;;;;5033412;28;20039;-76
2021/06/05 00:16:36;;;;;;;2.08;1.52;;;19.30;99.90;;;;;;5003134;28;20019;-74
2021/06/05 00:19:03;;;;;;;3.63;1.52;;;19.30;99.90;;;;;;4998378;28;20026;-75
2021/06/05 00:21:29;;;;;;;3.47;1.50;;;19.30;99.90;;;;;;4998005;28;20077;-76
2021/06/05 00:23:55;;;;;;;1.73;1.13;;;19.20;99.90;;;;;;4997534;28;20503;-75
2021/06/05 00:26:21;;;;;;;3.25;1.73;;;19.20;99.90;;;;;;5000429;28;20133;-73
2021/06/05 00:28:47;;;;;;;1.70;1.30;;;19.20;99.90;;;;;;5000194;28;20065;-74
2021/06/05 00:31:12;;;;;;;1.88;1.08;;;19.10;99.90;;;;;;5004077;28;20029;-75
2021/06/05 00:33:38;;;;;;;1.65;0.90;;;19.10;99.90;;;;;;5000681;28;20018;-75
2021/06/05 00:36:07;;;;;;;1.20;1.10;;;19.00;99.90;;;;;;4998507;28;20030;-74
2021/06/05 00:38:34;;;;;;;1.10;1.00;;;19.00;99.90;;;;;;4998706;28;20031;-76
2021/06/05 00:41:00;;;;;;;2.08;1.30;;;19.00;99.90;;;;;;5000734;28;20025;-74
2021/06/05 00:43:41;;;;;;;1.10;0.80;;;18.90;99.90;;;;;;4997966;28;20088;-74
2021/06/05 00:46:07;;;;;;;1.95;1.17;;;19.00;99.90;;;;;;4998145;28;20534;-74
2021/06/05 00:48:38;;;;;;;3.75;0.80;;;19.00;99.90;;;;;;4999898;28;20076;-74
2021/06/05 00:51:05;;;;;;;;;;;19.00;99.90;;;;;;5002933;28;20045;-74
2021/06/05 00:53:30;;;;;;;2.97;1.67;;;19.00;99.90;;;;;;4999879;28;19905;-75
2021/06/05 00:56:01;;;;;;;2.78;0.90;;;19.00;99.90;;;;;;4997430;28;20030;-75
2021/06/05 00:58:28;;;;;;;1.40;0.90;;;19.10;99.90;;;;;;4996225;28;20394;-76
2021/06/05 01:01:03;;;;;;;1.95;1.20;;;19.10;99.90;;;;;;4996378;28;20030;-75
2021/06/05 01:03:30;;;;;;;1.55;1.27;;;18.90;99.90;;;;;;4996784;28;20106;-75
2021/06/05 01:06:00;;;;;;;1.75;0.90;;;18.80;99.90;;;;;;4996327;28;20018;-75
2021/06/05 01:09:09;;;;;;;1.33;1.20;;;18.70;99.90;;;;;;4995229;28;20403;-73
2021/06/05 01:11:46;;;;;;;2.28;1.08;;;18.60;99.90;;;;;;4986311;28;20491;-76
2021/06/05 01:14:27;;;;;;;2.47;1.17;;;18.50;99.90;;;;;;4995642;28;20471;-74
2021/06/05 01:16:58;;;;;;;3.08;1.05;;;18.50;99.90;;;;;;4996080;28;20026;-75
2021/06/05 01:19:48;;;;;;;1.17;0.95;;;18.40;99.90;;;;;;4996255;28;20022;-75
2021/06/05 01:22:46;;;;;;;3.83;1.08;;;18.40;99.90;;;;;;4995391;28;20518;-76
2021/06/05 01:25:30;;;;;;;1.33;0.98;;;18.30;99.90;;;;;;4995966;28;20028;-76
2021/06/05 01:28:02;;;;;;;1.15;0.93;;;18.30;99.90;;;;;;4995779;28;20364;-75
2021/06/05 01:30:32;;;;;;;4.30;0.93;;;18.20;99.90;;;;;;4995819;28;20026;-74
2021/06/05 01:32:59;;;;;;;6.75;1.02;;;18.20;99.90;;;;;;4995926;28;20045;-75
2021/06/05 01:35:27;;;;;;;2.42;1.17;;;18.20;99.90;;;;;;4995549;28;20038;-74
2021/06/05 01:37:54;;;;;;;1.92;1.05;;;18.10;99.90;;;;;;4995809;28;20472;-74
2021/06/05 01:40:21;;;;;;;2.67;1.20;;;18.10;1.00;;;;;;4995731;28;20053;-74
2021/06/05 01:42:48;;;;;;;1.35;1.05;;;18.10;99.90;;;;;;4995880;28;20030;-74
2021/06/05 01:45:22;;;;;;;1.42;0.90;;;18.10;1.00;;;;;;4994266;28;20100;-75
2021/06/05 01:47:50;;;;;;;1.33;1.05;;;18.10;1.00;;;;;;4995347;28;20498;-74
2021/06/05 01:50:16;;;;;;;3.55;1.10;;;18.00;1.00;;;;;;4998487;28;20033;-73
2021/06/05 01:52:43;;;;;;;2.10;0.88;;;18.00;1.00;;;;;;5003821;28;20026;-71
2021/06/05 01:55:17;;;;;;;1.42;1.08;;;18.10;1.00;;;;;;5016365;28;20025;-72
2021/06/05 01:57:49;;;;;;;2.50;0.75;;;18.10;1.00;;;;;;4999157;28;20029;-71
2021/06/05 02:00:29;;;;;;;2.13;1.67;;;18.10;99.90;;;;;;4999227;28;20022;-73
2021/06/05 02:02:55;;;;;;;5.35;1.00;;;18.10;99.90;;;;;;5000177;28;20053;-71
2021/06/05 02:05:23;;;;;;;2.75;0.85;;;18.10;99.90;;;;;;4997918;28;20029;-71
2021/06/05 02:07:53;;;;;;;2.53;0.70;;;18.10;99.90;;;;;;4994950;28;20394;-73
2021/06/05 02:10:20;;;;;;;0.95;0.70;;;18.10;99.90;;;;;;4995284;28;20077;-73
2021/06/05 02:12:49;;;;;;;1.50;0.90;;;18.10;99.90;;;;;;4994748;28;20387;-72
2021/06/05 02:15:47;;;;;;;2.40;1.48;;;18.10;99.90;;;;;;4993384;28;20022;-72
2021/06/05 02:18:18;;;;;;;2.78;0.80;;;18.00;99.90;;;;;;4994497;28;20057;-71
2021/06/05 02:21:11;;;;;;;2.15;0.80;;;18.00;99.90;;;;;;4994750;28;20022;-75
2021/06/05 02:23:42;;;;;;;2.70;1.13;;;18.10;99.90;;;;;;4991522;28;20042;-72
2021/06/05 02:26:08;;;;;;;2.13;1.00;;;18.20;99.90;;;;;;4994258;28;20057;-72
2021/06/05 02:28:35;;;;;;;3.30;0.68;;;18.20;99.90;;;;;;4994507;28;20026;-72
2021/06/05 02:31:02;;;;;;;1.33;0.75;;;18.20;99.90;;;;;;4994005;28;20027;-72
2021/06/05 02:33:28;;;;;;;1.25;1.15;;;18.20;99.90;;;;;;4994174;28;20025;-72
2021/06/05 02:35:55;;;;;;;2.72;0.95;;;18.10;99.90;;;;;;4994196;28;20383;-72
2021/06/05 02:38:22;;;;;;;1.83;0.85;;;18.10;99.90;;;;;;4994467;28;20027;-72
2021/06/05 02:40:48;;;;;;;1.13;0.80;;;18.10;99.90;;;;;;4995176;28;20030;-72
2021/06/05 02:43:18;;;;;;;1.95;0.60;;;18.00;99.90;;;;;;4993647;28;20030;-73
2021/06/05 02:46:04;;;;;;;1.45;1.00;;;18.00;99.90;;;;;;4994407;28;20035;-72
2021/06/05 02:49:08;;;;;;;4.30;0.73;;;17.90;99.90;;;;;;4992727;28;20446;-73
2021/06/05 02:51:38;;;;;;;1.95;1.00;;;17.80;99.90;;;;;;4982642;28;20495;-74
2021/06/05 02:54:05;;;;;;;2.17;1.15;;;17.70;99.90;;;;;;5009236;28;20507;-72
2021/06/05 02:56:31;;;;;;;2.88;1.00;;;17.70;99.90;;;;;;4994145;28;20045;-74
2021/06/05 02:58:57;;;;;;;3.53;0.88;;;17.70;99.90;;;;;;4994320;28;20023;-72
2021/06/05 03:01:23;;;;;;;3.28;0.90;;;17.70;1.00;;;;;;4993853;28;20034;-72
2021/06/05 03:03:49;;;;;;;2.30;0.95;;;17.80;99.90;;;;;;4994507;28;20101;-72
2021/06/05 03:06:14;;;;;;;1.42;0.70;;;17.80;1.00;;;;;;4993972;28;20022;-72
2021/06/05 03:08:42;;;;;;;1.65;0.90;;;17.80;1.00;;;;;;4993274;28;20491;-72
2021/06/05 03:11:12;;;;;;;3.42;1.70;;;18.00;99.90;;;;;;4994376;28;20022;-72
2021/06/05 03:13:38;;;;;;;2.17;1.20;;;17.90;99.90;;;;;;4994716;28;20027;-74
2021/06/05 03:16:05;;;;;;;3.63;1.00;;;18.00;99.90;;;;;;4994326;28;20026;-73
2021/06/05 03:18:31;;;;;;;1.90;0.73;;;18.10;99.90;;;;;;4993026;28;20033;-72
2021/06/05 03:20:57;;;;;;;1.52;1.40;;;18.00;99.90;;;;;;4994172;28;20022;-73
2021/06/05 03:23:27;;;;;;;1.42;0.70;;;18.00;99.90;;;;;;4993858;28;20058;-71
2021/06/05 03:25:53;;;;;;;2.00;1.30;;;18.00;99.90;;;;;;4994374;28;20534;-72
2021/06/05 03:28:22;;;;;;;1.40;1.17;;;18.00;99.90;;;;;;4995320;28;20037;-72
2021/06/05 03:30:50;;;;;;;1.08;0.75;;;18.10;99.90;;;;;;5013992;28;20023;-72
2021/06/05 03:33:16;;;;;;;2.08;1.17;;;18.10;99.90;;;;;;5000137;28;20050;-72
2021/06/05 03:35:41;;;;;;;1.25;0.90;;;18.20;99.90;;;;;;5003631;28;20025;-73
2021/06/05 03:38:07;;;;;;;2.13;1.10;;;18.30;99.90;;;;;;4997846;28;20022;-73
2021/06/05 03:40:34;;;;;;;1.27;0.90;;;18.30;99.90;;;;;;4997627;28;20088;-73
2021/06/05 03:43:00;;;;;;;2.05;0.95;;;18.40;99.90;;;;;;4997698;28;20398;-72
2021/06/05 03:45:26;;;;;;;1.38;0.85;;;18.70;99.90;;;;;;5014228;28;20030;-71
2021/06/05 03:47:54;;;;;;;1.75;0.90;;;19.00;99.90;;;;;;5020753;28;20045;-71
2021/06/05 03:50:24;;;;;;;2.80;1.50;;;19.10;99.90;;;;;;5020711;28;20025;-71
2021/06/05 03:52:50;;;;;;;2.17;1.15;;;18.90;99.90;;;;;;5015501;28;20026;-71
2021/06/05 03:55:16;;;;;;;2.70;1.08;;;19.00;99.90;;;;;;4999149;28;20036;-73
2021/06/05 03:57:41;;;;;;;4.13;1.20;;;19.10;99.90;;;;;;4998232;28;20427;-73
2021/06/05 04:00:14;;;;;;;1.65;1.25;;;18.90;99.90;;;;;;4997487;28;20044;-73
2021/06/05 04:02:40;;;;;;;2.92;1.30;;;18.70;99.90;;;;;;5000176;28;20026;-72
2021/06/05 04:05:07;;;;;;;2.20;1.20;;;18.90;99.90;;;;;;4997698;28;20077;-73
2021/06/05 04:07:32;;;;;;;3.05;1.83;;;19.00;99.90;;;;;;5000047;28;20125;-73
2021/06/05 04:09:58;;;;;;;4.50;1.20;;;18.80;99.90;;;;;;4999758;28;20057;-72
2021/06/05 04:12:23;;;;;;;3.25;1.77;;;18.60;99.90;;;;;;4999769;28;20022;-72
2021/06/05 04:14:49;;;;;;;2.83;1.65;;;18.60;99.90;;;;;;4999007;28;20058;-74
2021/06/05 04:17:14;;;;;;;2.13;1.10;;;18.60;99.90;;;;;;4998857;28;20026;-74
2021/06/05 04:19:40;;;;;;;3.72;1.27;;;19.00;99.90;;;;;;4998200;28;20072;-72
2021/06/05 04:22:08;;;;;;;3.13;1.40;;;19.50;99.90;;;;;;4998834;28;20510;-72
2021/06/05 04:24:38;;;;;;;1.23;1.08;;;20.00;99.90;;;;;;4997631;28;20030;-72
2021/06/05 04:27:05;;;;;;;2.92;1.15;;;19.60;99.90;;;;;;4997069;28;20033;-73
2021/06/05 04:29:31;;;;;;;1.45;1.02;;;19.30;99.90;;;;;;4996769;28;20173;-73
2021/06/05 04:31:57;;;;;;;4.18;1.27;;;19.10;99.90;;;;;;4998353;28;20027;-73
2021/06/05 04:34:23;;;;;;;2.80;1.50;;;19.00;99.90;;;;;;4998277;28;20041;-73
2021/06/05 04:36:52;;;;;;;1.33;0.93;;;18.70;99.90;;;;;;4997456;28;20467;-73
2021/06/05 04:39:19;;;;;;;4.15;1.85;;;18.80;99.90;;;;;;4996375;28;20050;-74
2021/06/05 04:41:45;;;;;;;1.95;1.23;;;18.60;99.90;;;;;;4996216;28;20438;-73
2021/06/05 04:44:11;;;;;;;7.25;2.13;;;18.50;99.90;;;;;;4996697;28;20038;-73
2021/06/05 04:46:37;;;;;;;2.78;1.60;;;18.30;1.00;;;;;;4997091;28;20037;-71
2021/06/05 04:49:05;;;;;;;3.45;1.30;;;18.30;1.00;;;;;;4996635;28;20081;-72
2021/06/05 04:51:31;;;;;;;2.75;1.30;;;18.50;99.90;;;;;;4997141;28;20030;-73
2021/06/05 04:53:57;;;;;;;2.47;1.40;;;18.60;99.90;;;;;;4997481;28;20030;-73
2021/06/05 04:56:31;;;;;;;6.75;2.33;;;18.80;99.90;;;;;;5000652;28;20022;-72
2021/06/05 04:58:57;;;;;;;3.72;2.05;;;18.70;99.90;;;;;;5008754;28;20128;-72
2021/06/05 05:01:22;;;;;;;2.28;1.55;;;18.50;1.00;;;;;;5010537;28;20491;-72
2021/06/05 05:03:48;;;;;;;2.78;1.20;;;18.30;1.00;;;;;;5006705;28;20034;-74
2021/06/05 05:06:14;;;;;;;2.47;1.77;;;18.30;1.00;;;;;;5015972;28;20015;-72
2021/06/05 05:08:40;;;;;;;3.83;1.70;;;18.50;1.00;;;;;;5000771;28;20030;-73
2021/06/05 05:11:06;;;;;;;4.32;1.75;;;18.50;1.00;;;;;;5000021;28;20453;-73
2021/06/05 05:13:34;;;;;;;2.97;1.35;;;18.50;1.00;;;;;;5009355;28;20027;-72
2021/06/05 05:16:01;;;;;;;1.70;1.38;;;18.70;1.00;;;;;;5018864;28;20025;-71
2021/06/05 05:18:26;;;;;;;3.58;1.50;;;18.70;1.00;;;;;;5018333;28;20038;-71
2021/06/05 05:20:54;;;;;;;4.07;1.65;;;18.70;1.00;;;;;;5019136;28;20026;-71
2021/06/05 05:23:25;;;;;;;1.27;1.17;;;18.80;1.00;;;;;;5008712;28;20113;-74
2021/06/05 05:25:51;;;;;;;4.38;1.27;;;18.80;99.90;;;;;;4995532;28;20061;-72
2021/06/05 05:28:18;;;;;;;2.30;1.30;;;18.80;99.90;;;;;;4995430;28;20038;-74
2021/06/05 05:30:47;;;;;;;3.33;1.10;;;18.80;99.90;;;;;;4995254;28;20022;-72
2021/06/05 05:33:13;;;;;;;4.85;2.05;;;18.80;99.90;;;;;;4995201;28;20076;-73
2021/06/05 05:35:39;;;;;;;3.53;1.10;;;18.90;99.90;;;;;;4995020;28;20022;-73
2021/06/05 05:38:07;;;;;;;1.52;0.80;;;18.90;99.90;;;;;;4995688;28;20026;-72
2021/06/05 05:40:34;;;;;;;4.95;1.27;;;19.00;99.90;;;;;;4995727;28;20034;-73
2021/06/05 05:43:00;;;;;;;1.10;0.90;;;19.00;99.90;;;;;;4995643;28;20026;-74
2021/06/05 05:45:25;;;;;;;2.00;1.20;;;19.30;99.90;;;;;;4995895;28;20335;-75
2021/06/05 05:47:51;;;;;;;2.75;1.02;;;19.60;99.90;;;;;;4995533;28;20030;-72
2021/06/05 05:50:19;;;;;;;3.60;1.10;;;19.90;99.90;;;;;;4995762;28;20111;-74
2021/06/05 05:52:45;;;;;;;1.33;1.00;;;19.80;99.90;;;;;;4996626;28;20138;-73
2021/06/05 05:55:11;;;;;;;2.13;1.00;;;19.90;99.90;;;;;;4995647;28;20034;-74
2021/06/05 05:57:37;;;;;;;3.20;0.80;;;20.10;99.90;;;;;;4996631;28;20495;-73
2021/06/05 06:00:09;;;;;;;2.30;0.88;;;20.40;99.90;;;;;;4995126;28;20041;-73
2021/06/05 06:02:35;;;;;;;3.17;1.00;;;21.10;99.90;;;;;;4995336;28;20030;-73
2021/06/05 06:05:00;;;;;;;0.95;0.70;;;21.60;63.90;;;;;;4995718;28;20034;-74
2021/06/05 06:07:26;;;;;;;2.22;0.85;;;21.90;99.90;;;;;;4995066;28;20039;-73
2021/06/05 06:09:53;;;;;;;1.90;1.13;;;21.90;1.00;;;;;;4995321;28;20144;-73
2021/06/05 06:12:18;;;;;;;0.90;0.80;;;21.70;97.30;;;;;;4994744;28;20026;-72
2021/06/05 06:14:44;;;;;;;1.30;0.80;;;21.60;15.80;;;;;;4994897;28;20038;-72
2021/06/05 06:17:09;;;;;;;2.45;0.90;;;21.20;99.90;;;;;;4995191;28;20537;-73
2021/06/05 06:19:35;;;;;;;3.35;1.08;;;21.10;99.90;;;;;;4995121;28;20029;-73
2021/06/05 06:22:01;;;;;;;2.10;0.98;;;21.00;1.00;;;;;;4995515;28;20026;-73
2021/06/05 06:24:26;;;;;;;1.65;0.75;;;21.10;1.00;;;;;;4994372;28;20030;-73
2021/06/05 06:26:52;;;;;;;2.67;1.20;;;21.10;1.00;;;;;;4997419;28;20022;-73
2021/06/05 06:29:21;;;;;;;2.35;1.00;;;21.20;1.00;;;;;;4997235;28;20093;-72
2021/06/05 06:31:48;;;;;;;2.35;1.40;;;21.30;99.90;;;;;;4998073;28;20042;-72
2021/06/05 06:34:15;;;;;;;2.40;1.55;;;21.20;1.00;;;;;;4996344;28;20486;-73
2021/06/05 06:36:43;;;;;;;3.35;1.10;;;21.20;99.90;;;;;;4994229;28;20080;-72
2021/06/05 06:39:09;;;;;;;1.77;0.93;;;21.30;99.90;;;;;;4993821;28;20030;-74
2021/06/05 06:41:35;;;;;;;2.28;1.30;;;21.30;99.90;;;;;;4995064;28;20109;-76
2021/06/05 06:44:06;;;;;;;2.30;1.20;;;21.50;99.90;;;;;;5011336;28;20034;-71
2021/06/05 06:46:39;;;;;;;4.10;0.90;;;21.60;99.90;;;;;;4997924;28;20040;-72
2021/06/05 06:49:06;;;;;;;1.10;0.80;;;21.80;99.90;;;;;;4994336;28;20320;-74
2021/06/05 06:51:34;;;;;;;2.03;0.85;;;22.00;99.90;;;;;;4994905;28;20030;-73
2021/06/05 06:54:00;;;;;;;4.82;1.02;;;22.00;21.30;;;;;;4994352;28;20069;-73
2021/06/05 06:56:26;;;;;;;1.58;0.70;;;22.00;95.20;;;;;;4992963;28;20027;-73
2021/06/05 06:58:52;;;;;;;3.00;1.27;;;22.10;52.00;;;;;;4994780;28;20097;-72
2021/06/05 07:01:18;;;;;;;2.63;0.90;;;22.20;49.80;;;;;;4994241;28;20117;-74
2021/06/05 07:03:44;;;;;;;1.90;1.20;;;22.50;1.00;;;;;;4994672;28;20080;-75
2021/06/05 07:06:11;;;;;;;2.90;0.80;;;22.70;99.90;;;;;;4999344;28;20113;-73
2021/06/05 07:08:39;;;;;;;3.03;0.68;;;22.80;99.90;;;;;;4995185;28;20030;-74
2021/06/05 07:11:11;;;;;;;1.58;0.68;;;22.80;99.90;;;;;;4995292;28;20018;-72
2021/06/05 07:13:37;;;;;;;4.03;0.93;;;22.70;91.70;;;;;;4996262;28;20040;-73
2021/06/05 07:16:04;;;;;;;2.00;0.70;;;23.30;99.90;;;;;;4994665;28;20023;-74
2021/06/05 07:18:31;;;;;;;4.00;1.70;;;23.10;99.90;;;;;;4995315;28;20109;-75
2021/06/05 07:20:59;;;;;;;2.83;1.23;;;23.10;99.90;;;;;;4992772;28;20089;-74
2021/06/05 07:23:27;;;;;;;3.35;0.88;;;23.10;99.90;;;;;;4993801;28;20041;-73
2021/06/05 07:25:55;;;;;;;1.90;0.85;;;22.90;99.90;;;;;;4994115;28;20037;-73
2021/06/05 07:28:28;;;;;;;2.15;1.00;;;22.80;99.90;;;;;;4994004;28;20034;-75
2021/06/05 07:30:55;;;;;;;1.92;1.00;;;22.80;33.40;;;;;;4994577;28;20056;-75
2021/06/05 07:33:21;;;;;;;2.13;0.73;;;22.80;99.90;;;;;;4994695;28;20022;-74
2021/06/05 07:35:47;;;;;;;2.03;1.50;;;22.70;22.10;;;;;;4994229;28;20029;-72
2021/06/05 07:38:15;;;;;;;3.00;1.10;;;22.60;99.90;;;;;;4994935;28;20491;-74
2021/06/05 07:40:41;;;;;;;4.00;1.25;;;23.60;99.90;;;;;;4976724;28;20030;-74
2021/06/05 07:43:07;;;;;;;1.05;0.80;;;24.00;99.90;;;;;;4994819;28;20033;-72
2021/06/05 07:45:33;;;;;;;1.92;1.10;;;24.10;99.90;;;;;;4994659;28;20386;-73
2021/06/05 07:47:59;;;;;;;3.45;1.00;;;23.60;99.90;;;;;;4993844;28;20037;-75
2021/06/05 07:50:26;;;;;;;1.67;1.20;;;23.20;99.90;;;;;;4992588;28;20034;-76
2021/06/05 07:52:51;;;;;;;3.42;2.90;;;23.00;1.00;;;;;;4994828;28;20045;-73
2021/06/05 07:55:18;;;;;;;2.30;1.38;;;23.10;1.00;;;;;;4994615;28;20527;-74
2021/06/05 07:57:43;;;;;;;1.80;1.00;;;23.10;59.20;;;;;;4994744;28;20069;-74
2021/06/05 08:00:15;;;;;;;1.23;0.98;;;23.00;98.90;;;;;;4992444;28;20033;-73
2021/06/05 08:02:41;;;;;;;1.77;1.30;;;22.70;83.20;;;;;;4997742;28;20026;-74
2021/06/05 08:05:07;;;;;;;1.10;0.82;;;22.90;99.90;;;;;;4994636;28;20116;-73
2021/06/05 08:07:33;;;;;;;0.80;0.80;;;22.80;99.90;;;;;;4994092;28;20462;-75
2021/06/05 08:09:59;;;;;;;1.20;0.90;;;22.80;99.90;;;;;;4994957;28;20085;-74
2021/06/05 08:12:24;;;;;;;2.83;1.13;;;23.00;99.90;;;;;;4994410;28;20097;-76
2021/06/05 08:14:50;;;;;;;6.93;2.25;;;22.90;99.90;;;;;;4993762;28;20022;-73
2021/06/05 08:17:16;;;;;;;3.00;1.10;;;23.10;1.00;;;;;;4998090;28;20030;-74
2021/06/05 08:19:41;;;;;;;2.33;0.82;;;23.20;99.90;;;;;;5002284;28;20023;-73
2021/06/05 08:22:08;;;;;;;2.92;1.05;;;23.10;99.90;;;;;;5003290;28;20092;-71
2021/06/05 08:24:33;;;;;;;1.13;1.00;;;22.90;99.90;;;;;;5002276;28;20023;-74
2021/06/05 08:26:59;;;;;;;2.30;1.20;;;22.80;99.90;;;;;;5001897;28;20019;-74
2021/06/05 08:29:24;;;;;;;3.63;1.10;;;23.10;1.00;;;;;;4997118;28;20479;-75
2021/06/05 08:31:51;;;;;;;16.23;11.35;;;23.20;99.90;;;;;;4999066;28;20072;-73
2021/06/05 08:34:18;;;;;;;3.00;1.95;;;22.70;99.90;;;;;;4999758;28;20572;-72
2021/06/05 08:36:44;;;;;;;3.33;1.23;;;22.60;99.90;;;;;;5002201;28;20035;-74
2021/06/05 08:39:11;;;;;;;1.67;1.00;;;22.50;1.00;;;;;;5003446;28;20080;-74
2021/06/05 08:41:50;;;;;;;2.45;0.88;;;22.30;99.90;;;;;;5011794;28;20038;-72
2021/06/05 08:44:40;;;;;;;1.02;0.93;;;22.00;1.00;;;;;;5010833;28;20030;-73
2021/06/05 08:47:18;;;;;;;1.87;1.03;;;22.00;99.90;;;;;;4999328;28;20208;-72
2021/06/05 08:49:46;;;;;;;1.15;0.80;;;21.80;1.00;;;;;;4997949;28;20483;-73
2021/06/05 08:52:38;;;;;;;2.53;0.93;;;21.70;99.90;;;;;;4997901;28;20372;-73
2021/06/05 08:55:18;;;;;;;3.63;1.38;;;22.30;99.90;;;;;;4996943;28;20026;-74
2021/06/05 08:57:54;;;;;;;5.17;2.57;;;22.20;4.90;;;;;;4997367;28;20407;-73
2021/06/05 09:00:40;;;;;;;2.20;1.20;;;22.10;99.90;;;;;;4997109;28;20394;-73
2021/06/05 09:03:16;;;;;;;3.30;1.20;;;22.20;99.90;;;;;;4998072;28;20030;-74
2021/06/05 09:05:52;;;;;;;1.08;0.95;;;21.90;55.70;;;;;;4999385;28;20094;-75
2021/06/05 09:08:18;;;;;;;1.40;1.10;;;21.80;99.90;;;;;;4998924;28;20534;-74
2021/06/05 09:10:46;;;;;;;2.00;1.35;;;21.70;99.90;;;;;;4997336;28;20093;-74
2021/06/05 09:13:12;;;;;;;3.40;1.98;;;21.50;99.90;;;;;;4995391;28;20026;-72
2021/06/05 09:15:38;;;;;;;2.90;1.25;;;21.70;20.90;;;;;;4997101;28;20019;-73
2021/06/05 09:18:07;;;;;;;4.70;1.77;;;22.00;99.90;;;;;;4996786;28;20417;-72
2021/06/05 09:20:38;;;;;;;4.10;1.60;;;22.60;99.90;;;;;;4997545;28;20022;-73
2021/06/05 09:23:25;;;;;;;3.63;1.27;;;22.90;86.60;;;;;;4997041;28;20040;-74
2021/06/05 09:25:51;;;;;;;3.22;1.10;;;23.40;1.00;;;;;;4997739;28;20053;-74
2021/06/05 09:28:20;;;;;;;2.60;1.23;;;23.80;99.90;;;;;;4996558;28;20263;-72
2021/06/05 09:30:48;;;;;;;1.48;1.27;;;23.60;99.90;;;;;;5002795;28;20040;-72
2021/06/05 09:33:27;;;;;;;1.75;1.10;;;24.00;99.90;;;;;;5019169;28;20030;-72
2021/06/05 09:36:14;;;;;;;1.15;1.05;;;23.70;99.90;;;;;;5019231;28;20011;-71
2021/06/05 09:38:46;;;;;;;2.70;1.10;;;23.70;99.90;;;;;;5019032;28;20019;-71
2021/06/05 09:41:24;;;;;;;2.88;1.05;;;23.60;99.90;;;;;;5000900;28;20026;-74
2021/06/05 09:43:52;;;;;;;2.42;1.30;;;23.20;99.90;;;;;;4996930;28;20156;-76
2021/06/05 09:46:34;;;;;;;5.30;1.10;;;22.90;99.90;;;;;;4996426;28;20057;-74
2021/06/05 09:49:14;;;;;;;1.38;0.95;;;22.50;1.00;;;;;;4997300;28;20030;-72
2021/06/05 09:51:44;;;;;;;0.70;0.60;;;22.20;2.10;;;;;;4996085;28;20050;-74
2021/06/05 09:54:14;;;;;;;1.13;0.70;;;22.10;99.90;;;;;;5010876;28;20774;-73
2021/06/05 09:56:45;;;;;;;0.93;0.77;;;21.90;63.70;;;;;;4995708;28;20390;-73
2021/06/05 09:59:17;;;;;;;2.83;0.75;;;21.80;99.90;;;;;;4996425;28;20030;-74
2021/06/05 10:01:59;;;;;;;1.90;1.02;;;22.00;88.90;;;;;;4995981;28;20096;-73
2021/06/05 10:04:30;;;;;;;2.42;0.88;;;21.90;1.00;;;;;;4995964;28;20031;-75
2021/06/05 10:06:58;;;;;;;1.38;0.98;;;21.70;1.00;;;;;;4995809;28;20034;-75
2021/06/05 10:09:26;;;;;;;1.20;0.90;;;21.90;66.50;;;;;;4995172;28;20030;-73
2021/06/05 10:12:09;;;;;;;2.38;1.35;;;22.00;99.90;;;;;;4994303;28;20022;-73
2021/06/05 10:14:41;;;;;;;2.47;1.20;;;22.20;99.90;;;;;;5010402;28;20034;-73
2021/06/05 10:17:18;;;;;;;1.65;0.90;;;22.40;25.40;;;;;;4995264;28;20486;-72
2021/06/05 10:20:07;;;;;;;1.92;0.90;;;23.10;99.90;;;;;;4996277;28;20026;-74
2021/06/05 10:22:35;;;;;;;2.30;0.90;;;23.30;1.00;;;;;;4993845;28;20125;-73
2021/06/05 10:25:06;;;;;;;0.90;0.73;;;23.20;1.00;;;;;;4994992;28;20022;-76
2021/06/05 10:27:36;;;;;;;1.85;0.98;;;23.10;1.00;;;;;;4994848;28;20479;-75
2021/06/05 10:30:16;;;;;;;1.10;0.80;;;23.20;1.00;;;;;;4995596;28;20022;-73
2021/06/05 10:32:44;;;;;;;0.93;0.80;;;23.40;99.90;;;;;;5007698;28;20014;-71
2021/06/05 10:35:23;;;;;;;1.65;0.80;;;23.30;99.90;;;;;;5003100;28;20035;-74
2021/06/05 10:37:50;;;;;;;1.02;0.75;;;23.30;99.90;;;;;;4994738;28;20019;-74
2021/06/05 10:40:22;;;;;;;1.98;1.85;;;23.10;99.90;;;;;;4994641;28;20019;-73
2021/06/05 10:42:53;;;;;;;2.58;0.80;;;23.00;99.90;;;;;;4997167;28;20106;-74
2021/06/05 10:45:32;;;;;;;2.88;1.10;;;23.30;99.90;;;;;;4993692;28;20023;-73
2021/06/05 10:48:11;;;;;;;2.03;0.90;;;23.20;99.90;;;;;;4993060;28;20038;-75
2021/06/05 10:50:48;;;;;;;4.40;0.88;;;23.60;83.20;;;;;;4994522;28;20117;-74
2021/06/05 10:53:30;;;;;;;5.95;1.23;;;23.80;9.20;;;;;;4996503;28;20097;-73
2021/06/05 10:56:12;;;;;;;0.82;0.70;;;23.70;99.90;;;;;;4995225;28;20029;-73
2021/06/05 10:58:42;;;;;;;3.42;1.30;;;24.00;93.50;;;;;;4994557;28;20455;-74
2021/06/05 11:01:29;;;;;;;1.20;1.10;;;23.60;99.90;;;;;;4994298;28;20113;-75
2021/06/05 11:03:57;;;;;;;1.20;0.90;;;23.10;99.90;;;;;;4992968;28;20121;-74
2021/06/05 11:06:26;;;;;;;1.80;1.20;;;22.50;99.90;;;;;;4994520;28;20031;-72
2021/06/05 11:09:21;;;;;;;3.58;1.08;;;22.50;1.00;;;;;;4993386;28;20057;-72
2021/06/05 11:11:49;;;;;;;3.22;1.20;;;22.40;91.20;;;;;;4993488;28;20022;-73
2021/06/05 11:14:24;;;;;;;3.65;1.35;;;22.30;1.00;;;;;;4994494;28;20073;-74
2021/06/05 11:16:59;;;;;;;2.70;1.20;;;22.50;99.90;;;;;;4994842;28;20026;-73
2021/06/05 11:19:39;;;;;;;1.20;1.10;;;22.70;99.90;;;;;;4994477;28;20037;-72
2021/06/05 11:22:10;;;;;;;1.42;0.90;;;22.80;1.00;;;;;;4995754;28;20450;-73
2021/06/05 11:24:38;;;;;;;2.05;1.20;;;22.90;99.90;;;;;;4995363;28;20032;-73
2021/06/05 11:27:08;;;;;;;3.40;1.00;;;23.20;99.90;;;;;;4995525;28;20038;-72
2021/06/05 11:29:34;;;;;;;2.30;1.13;;;23.20;99.90;;;;;;4995381;28;20475;-73
2021/06/05 11:32:23;;;;;;;2.22;1.08;;;23.30;99.90;;;;;;4994765;28;20137;-74
2021/06/05 11:34:54;;;;;;;1.92;1.05;;;23.60;1.00;;;;;;4996678;28;20042;-75
2021/06/05 11:37:19;;;;;;;2.45;1.35;;;23.60;69.10;;;;;;4995222;28;20149;-73
2021/06/05 11:39:51;;;;;;;3.45;1.00;;;23.70;39.20;;;;;;4994601;28;20078;-75
2021/06/05 11:42:17;;;;;;;2.28;1.20;;;23.80;99.90;;;;;;4995893;28;20050;-74
2021/06/05 11:45:10;;;;;;;1.63;0.60;;;23.90;1.00;;;;;;4994665;28;20050;-74
2021/06/05 11:47:43;;;;;;;1.10;0.80;;;24.20;34.90;;;;;;4993653;28;20030;-76
2021/06/05 11:50:11;;;;;;;1.17;0.95;;;24.20;1.00;;;;;;4994483;28;20034;-76
2021/06/05 11:52:44;;;;;;;3.22;0.80;;;24.20;1.00;;;;;;4997800;28;20390;-74
2021/06/05 11:55:16;;;;;;;1.92;0.90;;;24.40;1.00;;;;;;4998996;28;20033;-73
2021/06/05 11:57:55;;;;;;;0.98;0.88;;;24.80;1.00;;;;;;5001292;28;20029;-75
2021/06/05 12:00:35;;;;;;;0.70;0.70;;;25.40;99.90;;;;;;4999978;28;20019;-75
2021/06/05 12:03:20;;;;;;;0.98;0.80;;;25.00;99.90;;;;;;4999469;28;20022;-74
2021/06/05 12:05:45;;;;;;;1.42;0.65;;;24.60;1.00;;;;;;5000682;28;20019;-74
2021/06/05 12:08:27;;;;;;;2.38;2.17;;;24.70;1.00;;;;;;4999136;28;20041;-75
2021/06/05 12:10:55;;;;;;;1.38;1.27;;;24.50;1.00;;;;;;4998800;28;20022;-73
2021/06/05 12:13:36;;;;;;;2.00;1.00;;;24.50;1.00;;;;;;4999142;28;20025;-75
2021/06/05 12:16:22;;;;;;;1.50;1.40;;;24.70;1.00;;;;;;5009115;28;20069;-72
2021/06/05 12:18:49;;;;;;;1.65;1.10;;;24.70;1.00;;;;;;5004100;28;20038;-76
2021/06/05 12:21:31;;;;;;;2.15;0.70;;;24.50;1.00;;;;;;4999118;28;20030;-73
2021/06/05 12:23:57;;;;;;;1.15;0.60;;;24.40;1.00;;;;;;4997772;28;20124;-76
2021/06/05 12:26:27;;;;;;;0.68;0.68;;;24.30;1.00;;;;;;4998107;28;20026;-74
2021/06/05 12:29:13;;;;;;;0.80;0.65;;;24.20;1.00;;;;;;4996734;28;20038;-75
2021/06/05 12:31:42;;;;;;;0.60;0.60;;;24.50;1.00;;;;;;4997707;28;20030;-74
2021/06/05 12:34:29;;;;;;;1.85;1.70;;;24.20;1.00;;;;;;4999085;28;20439;-74
2021/06/05 12:36:57;;;;;;;1.45;0.95;;;24.00;14.70;;;;;;4998370;28;20028;-74
2021/06/05 12:39:47;;;;;;;0.73;0.70;;;23.50;99.90;;;;;;4996685;28;20058;-74
2021/06/05 12:42:24;;;;;;;0.73;0.73;;;23.50;99.90;;;;;;4997857;28;20026;-73
2021/06/05 12:44:54;;;;;;;2.92;1.02;;;23.40;99.90;;;;;;4998049;28;20403;-74
2021/06/05 12:47:25;;;;;;;2.20;0.98;;;23.30;99.90;;;;;;4998734;28;20106;-75
2021/06/05 12:49:51;;;;;;;1.42;0.80;;;23.60;99.90;;;;;;5000435;28;20030;-75
2021/06/05 12:52:28;;;;;;;1.00;0.90;;;23.80;99.90;;;;;;4997263;28;20037;-75
2021/06/05 12:55:29;;;;;;;1.00;0.90;;;23.70;90.90;;;;;;4997602;28;20026;-73
2021/06/05 12:57:59;;;;;;;0.77;0.70;;;23.80;77.50;;;;;;4997586;28;20027;-75
2021/06/05 13:00:30;;;;;;;1.08;0.90;;;23.80;28.80;;;;;;4997748;28;20097;-75
2021/06/05 13:03:08;;;;;;;3.53;1.10;;;23.80;50.00;;;;;;4998544;28;20027;-74
2021/06/05 13:05:36;;;;;;;1.05;0.90;;;24.60;1.00;;;;;;4997000;28;20104;-74
2021/06/05 13:08:34;;;;;;;1.33;0.55;;;25.10;1.00;;;;;;4997042;28;20494;-74